Weather History for Salem, IL

Change the Weather History Date:

Saturday, November 10, 2012

  Actual Average Record
Temperature  
Mean Temperature 64 °F -  
Max Temperature 73 °F 55 °F 74 °F (1964)
Min Temperature 56 °F 35 °F 18 °F (1960)
Growing Degree Days 14 (Base 50)    
Moisture  
Dew Point 43 °F    
Average Humidity 46    
Maximum Humidity 58    
Minimum Humidity 32    
Precipitation  
Precipitation 0.00 in - - ()
Sea Level Pressure  
Sea Level Pressure 30.04 in    
Wind  
Wind Speed 14 mph (South)    
Max Wind Speed 24 mph    
Max Gust Speed 31 mph    
Visibility 10 miles    
Events      
Averages and records for this station are not official NWS values.
T = Trace of Precipitation, MM = Missing Value Source: NWS Daily Summary

Daily Weather History Graph

Daily Weather History Graph

Search for Another Location

Airport:

Trip Planner

Search our weather history database for the weather conditions in past years. The results will help you decide how hot, cold, wet, or windy it might be!

Date:

Astronomy

Nov. 10, 2012 Rise Set
Actual Time 6:32 AM CST 4:46 PM CST
Civil Twilight 6:04 AM CST 5:14 PM CST
Nautical Twilight 5:33 AM CST 5:46 PM CST
Astronomical Twilight 5:01 AM CST 6:17 PM CST
Moon 2:40 AM CST (11/10) 2:31 PM CST (11/10)
Length of Visible Light 11h 09m
Length of Day
10h 13m
Waning Crescent, 14% of the Moon is Illuminated
Nov 10
Waning Crescent
Nov 13
New
Nov 20
First Quarter
Nov 28
Full
Dec 6
Last Quarter

Hourly Weather History & Observations

Time (CST) Temp. Dew Point Humidity Pressure Visibility Wind Dir Wind Speed Gust Speed Precip Events Conditions
12:15 AM 60.6 °F 44.4 °F 55% 30.03 in 10.0 mi SSW 13.8 mph 21.9 mph N/A   Clear
12:35 AM 60.4 °F 43.0 °F 53% 30.03 in 10.0 mi SSW 13.8 mph 20.7 mph N/A   Clear
12:55 AM 60.1 °F 42.1 °F 51% 30.03 in 10.0 mi SSW 16.1 mph 19.6 mph N/A   Clear
1:15 AM 60.4 °F 41.5 °F 50% 30.04 in 10.0 mi SSW 16.1 mph - N/A   Clear
1:35 AM 60.1 °F 41.2 °F 50% 30.04 in 10.0 mi SSW 17.3 mph 21.9 mph N/A   Clear
1:55 AM 59.7 °F 41.0 °F 50% 30.04 in 10.0 mi SSW 16.1 mph 21.9 mph N/A   Clear
2:15 AM 59.5 °F 40.3 °F 49% 30.05 in 10.0 mi SSW 15.0 mph - N/A   Clear
2:35 AM 59.7 °F 39.9 °F 48% 30.05 in 10.0 mi SSW 12.7 mph 19.6 mph N/A   Clear
2:55 AM 59.4 °F 39.6 °F 48% 30.04 in 10.0 mi SSW 16.1 mph - N/A   Clear
3:15 AM 59.0 °F 39.6 °F 49% 30.05 in 10.0 mi SSW 16.1 mph 21.9 mph N/A   Clear
3:35 AM 59.0 °F 39.2 °F 48% 30.05 in 10.0 mi SSW 11.5 mph 20.7 mph N/A   Clear
3:55 AM 59.2 °F 39.6 °F 48% 30.05 in 10.0 mi SSW 13.8 mph 20.7 mph N/A   Clear
4:15 AM 58.8 °F 39.7 °F 49% 30.06 in 10.0 mi SSW 12.7 mph - N/A   Clear
4:35 AM 59.0 °F 39.7 °F 49% 30.06 in 10.0 mi South 11.5 mph 18.4 mph N/A   Clear
4:55 AM 58.8 °F 39.9 °F 50% 30.06 in 10.0 mi South 10.4 mph - N/A   Clear
5:15 AM 58.3 °F 39.7 °F 50% 30.07 in 10.0 mi SSE 6.9 mph - N/A   Clear
5:35 AM 57.4 °F 39.7 °F 52% 30.07 in 10.0 mi SSE 6.9 mph - N/A   Clear
5:55 AM 57.2 °F 40.1 °F 53% 30.07 in 10.0 mi South 8.1 mph - N/A   Clear
6:15 AM 56.8 °F 40.6 °F 55% 30.07 in 10.0 mi South 8.1 mph - N/A   Clear
6:35 AM 57.2 °F 41.0 °F 55% 30.07 in 10.0 mi South 8.1 mph - N/A   Clear
6:55 AM 57.2 °F 41.4 °F 55% 30.07 in 10.0 mi South 9.2 mph - N/A   Clear
7:15 AM 57.2 °F 41.9 °F 57% 30.08 in 10.0 mi South 10.4 mph - N/A   Clear
7:35 AM 58.1 °F 42.8 °F 57% 30.08 in 10.0 mi South 11.5 mph - N/A   Clear
7:55 AM 59.0 °F 44.1 °F 58% 30.08 in 10.0 mi South 12.7 mph 18.4 mph N/A   Clear
8:15 AM 60.1 °F 44.8 °F 57% 30.08 in 10.0 mi South 15.0 mph - N/A   Clear
8:35 AM 61.2 °F 45.3 °F 56% 30.08 in 10.0 mi South 13.8 mph 18.4 mph N/A   Clear
8:55 AM 62.8 °F 46.4 °F 55% 30.08 in 10.0 mi South 12.7 mph - N/A   Clear
9:15 AM 63.9 °F 46.8 °F 54% 30.07 in 10.0 mi South 13.8 mph 19.6 mph N/A   Clear
9:35 AM 65.3 °F 47.3 °F 52% 30.06 in 10.0 mi South 15.0 mph - N/A   Clear
9:55 AM 66.6 °F 47.3 °F 50% 30.06 in 10.0 mi South 17.3 mph 21.9 mph N/A   Clear
10:15 AM 67.6 °F 45.5 °F 45% 30.05 in 10.0 mi South 17.3 mph 25.3 mph N/A   Clear
10:35 AM 68.9 °F 45.7 °F 43% 30.06 in 10.0 mi South 17.3 mph 23.0 mph N/A   Clear
10:55 AM 69.6 °F 45.0 °F 41% 30.05 in 10.0 mi South 12.7 mph 19.6 mph N/A   Clear
11:15 AM 69.8 °F 44.8 °F 41% 30.04 in 10.0 mi South 15.0 mph 26.5 mph N/A   Clear
11:35 AM 70.3 °F 45.0 °F 40% 30.03 in 10.0 mi South 16.1 mph 24.2 mph N/A   Clear
11:55 AM 71.4 °F 44.1 °F 37% 30.02 in 10.0 mi South 13.8 mph 21.9 mph N/A   Clear
12:15 PM 72.3 °F 42.3 °F 34% 30.02 in 10.0 mi SSW 20.7 mph 28.8 mph N/A   Clear
12:35 PM 72.9 °F 41.4 °F 32% 30.01 in 10.0 mi South 21.9 mph 25.3 mph N/A   Clear
12:55 PM 72.7 °F 42.1 °F 33% 30.01 in 10.0 mi SSW 21.9 mph 27.6 mph N/A   Clear
1:15 PM 72.7 °F 42.4 °F 34% 30.01 in 10.0 mi South 17.3 mph 26.5 mph N/A   Clear
1:35 PM 72.9 °F 42.1 °F 33% 30.01 in 10.0 mi South 15.0 mph 25.3 mph N/A   Clear
1:55 PM 73.2 °F 42.3 °F 33% 30.00 in 10.0 mi South 17.3 mph 27.6 mph N/A   Clear
2:15 PM 73.0 °F 43.7 °F 35% 30.00 in 10.0 mi South 19.6 mph 29.9 mph N/A   Clear
2:35 PM 72.5 °F 45.5 °F 38% 29.99 in 10.0 mi South 24.2 mph 31.1 mph N/A   Clear
2:55 PM 72.5 °F 45.7 °F 38% 29.99 in 10.0 mi South 16.1 mph 24.2 mph N/A   Clear
3:15 PM 72.5 °F 44.4 °F 36% 30.00 in 10.0 mi South 19.6 mph 29.9 mph N/A   Clear
3:35 PM 72.0 °F 45.5 °F 39% 30.00 in 10.0 mi South 11.5 mph 19.6 mph N/A   Clear
3:55 PM 71.1 °F 46.8 °F 42% 30.01 in 10.0 mi South 16.1 mph 23.0 mph N/A   Clear
4:15 PM 70.3 °F 46.8 °F 43% 30.01 in 10.0 mi South 15.0 mph 23.0 mph N/A   Clear
4:35 PM 69.6 °F 46.8 °F 44% 30.01 in 10.0 mi South 12.7 mph 20.7 mph N/A   Clear
4:55 PM 68.0 °F 46.4 °F 46% 30.02 in 10.0 mi South 12.7 mph - N/A   Clear
5:15 PM 68.2 °F 46.9 °F 47% 30.03 in 10.0 mi South 10.4 mph - N/A   Clear
5:35 PM 67.5 °F 46.8 °F 47% 30.03 in 10.0 mi SSE 10.4 mph - N/A   Clear
5:55 PM 67.3 °F 46.8 °F 48% 30.04 in 10.0 mi SSE 11.5 mph 17.3 mph N/A   Clear
6:15 PM 66.2 °F 47.3 °F 51% 30.05 in 10.0 mi SSE 6.9 mph - N/A   Clear
6:35 PM 65.8 °F 47.1 °F 51% 30.05 in 10.0 mi SSE 6.9 mph - N/A   Clear
6:55 PM 65.3 °F 47.3 °F 52% 30.06 in 10.0 mi SSE 8.1 mph - N/A   Clear
7:15 PM 64.4 °F 46.4 °F 52% 30.06 in 10.0 mi South 10.4 mph - N/A   Clear
7:35 PM 65.1 °F 45.5 °F 49% 30.06 in 10.0 mi South 9.2 mph - N/A   Clear
7:55 PM 64.9 °F 45.1 °F 49% 30.06 in 10.0 mi SSE 12.7 mph - N/A   Clear
8:15 PM 65.3 °F 43.9 °F 46% 30.05 in 10.0 mi South 13.8 mph 21.9 mph N/A   Clear
8:35 PM 65.7 °F 43.2 °F 44% 30.05 in 10.0 mi SSE 13.8 mph 19.6 mph N/A   Clear
8:55 PM 65.5 °F 42.8 °F 44% 30.05 in 10.0 mi South 12.7 mph - N/A   Clear
9:15 PM 65.1 °F 41.9 °F 43% 30.05 in 10.0 mi South 11.5 mph 20.7 mph N/A   Clear
9:35 PM 64.6 °F 41.2 °F 42% 30.04 in 10.0 mi SSE 18.4 mph 23.0 mph N/A   Clear
9:55 PM 64.4 °F 40.3 °F 41% 30.03 in 10.0 mi SSE 15.0 mph 21.9 mph N/A   Clear
10:15 PM 64.2 °F 39.4 °F 40% 30.03 in 10.0 mi South 15.0 mph 24.2 mph N/A   Clear
10:35 PM 63.5 °F 39.9 °F 42% 30.03 in 10.0 mi South 15.0 mph 18.4 mph N/A   Clear
10:55 PM 63.1 °F 40.1 °F 43% 30.03 in 10.0 mi South 11.5 mph 21.9 mph N/A   Clear
11:15 PM 63.5 °F 40.6 °F 43% 30.02 in 10.0 mi South 16.1 mph 24.2 mph N/A   Clear
11:35 PM 63.3 °F 41.5 °F 45% 30.02 in 10.0 mi South 16.1 mph 23.0 mph N/A   Clear